Time;durP1;ratioP1;P1;durP2;ratioP2;P2;SDS_P1;SDS_P2;PMS_P1;PMS_P2;Temp;Humidity;BMP_temperature;BMP_pressure;BME280_temperature;BME280_humidity;BME280_pressure;Samples;Min_cycle;Max_cycle;Signal;HPM_P1;HPM_P2
2022/01/28 00:01:08;;;;;;;;;50.00;39.75;;;;;10.17;72.11;102800.56;5029020;28;45498;-84
2022/01/28 00:03:35;;;;;;;;;44.00;37.50;;;;;10.11;71.98;102792.72;5030208;28;45526;-83
2022/01/28 00:06:02;;;;;;;;;48.75;38.50;;;;;10.13;72.10;102791.78;5030820;28;45418;-83
2022/01/28 00:08:28;;;;;;;;;47.50;37.75;;;;;10.11;72.13;102792.72;5032646;28;45368;-84
2022/01/28 00:10:53;;;;;;;;;47.75;39.00;;;;;10.13;72.39;102797.13;5021652;28;46306;-84
2022/01/28 00:13:39;;;;;;;;;51.75;41.25;;;;;10.15;72.12;102797.97;5028113;28;45622;-84
2022/01/28 00:19:26;;;;;;;;;42.00;35.75;;;;;10.15;72.08;102803.28;5031785;28;45569;-84
2022/01/28 00:40:26;;;;;;;;;53.00;42.25;;;;;10.17;72.05;102827.19;5031199;28;45536;-83
2022/01/28 00:42:51;;;;;;;;;43.00;37.50;;;;;10.13;71.96;102830.84;5030980;28;45491;-83
2022/01/28 00:45:16;;;;;;;;;50.50;41.75;;;;;10.18;71.86;102834.28;5030458;28;46422;-84
2022/01/28 00:47:43;;;;;;;;;52.50;42.25;;;;;10.18;72.34;102837.81;5012030;28;45838;-85
2022/01/28 00:50:10;;;;;;;;;49.75;39.50;;;;;10.11;72.17;102827.31;5030801;28;45551;-84
2022/01/28 00:52:36;;;;;;;;;49.50;38.00;;;;;10.10;72.07;102814.91;5032208;28;45498;-84
2022/01/28 00:55:01;;;;;;;;;48.00;37.25;;;;;10.09;72.38;102827.34;5034893;28;45360;-83
2022/01/28 00:57:27;;;;;;;;;49.75;41.25;;;;;10.12;72.93;102831.72;5035859;28;45592;-84
2022/01/28 00:59:52;;;;;;;;;48.25;40.75;;;;;10.17;72.55;102835.16;5032128;28;45452;-84
2022/01/28 01:02:17;;;;;;;;;44.00;37.00;;;;;10.17;72.77;102841.41;5034928;28;58982;-84
2022/01/28 01:04:43;;;;;;;;;42.50;35.75;;;;;10.21;72.74;102842.19;5036846;28;45230;-84
2022/01/28 01:07:08;;;;;;;;;41.50;32.75;;;;;10.26;73.01;102848.28;5036636;28;45752;-83
2022/01/28 01:09:35;;;;;;;;;32.75;30.25;;;;;10.26;73.06;102834.97;5036461;28;45467;-84
2022/01/28 01:12:00;;;;;;;;;38.00;32.25;;;;;10.35;73.21;102841.94;5035266;28;46206;-83
2022/01/28 01:14:25;;;;;;;;;37.00;32.25;;;;;10.30;72.96;102825.19;5032271;28;45247;-84
2022/01/28 01:17:17;;;;;;;;;41.50;34.00;;;;;10.33;72.52;102838.44;5037443;28;45753;-84
2022/01/28 01:19:47;;;;;;;;;28.50;26.50;;;;;10.37;72.44;102845.44;5012114;28;45650;-84
2022/01/28 01:22:12;;;;;;;;;38.25;33.50;;;;;10.28;72.40;102845.59;5035775;28;47307;-84
2022/01/28 01:24:48;;;;;;;;;35.00;33.00;;;;;10.33;72.40;102846.41;5035737;28;45414;-84
2022/01/28 01:27:14;;;;;;;;;31.00;30.25;;;;;10.39;72.35;102851.59;5036276;28;45554;-84
2022/01/28 01:29:43;;;;;;;;;36.50;33.00;;;;;10.40;72.68;102853.38;5036269;28;45405;-84
2022/01/28 01:32:13;;;;;;;;;34.00;32.00;;;;;10.44;72.78;102855.06;5035878;28;45900;-84
2022/01/28 01:34:39;;;;;;;;;56.50;46.75;;;;;10.44;72.30;102863.06;5035952;28;45365;-84
2022/01/28 01:37:05;;;;;;;;;58.00;45.25;;;;;10.43;72.64;102861.28;5017824;28;45534;-83
2022/01/28 01:39:34;;;;;;;;;58.00;46.00;;;;;10.47;72.49;102864.78;5035498;28;45389;-84
2022/01/28 01:42:09;;;;;;;;;56.75;46.00;;;;;10.42;72.17;102854.22;5035651;28;45593;-84
2022/01/28 01:52:54;;;;;;;;;74.67;57.67;;;;;10.40;72.07;102872.88;4955021;28;45720;-84
2022/01/28 01:55:20;;;;;;;;;80.00;65.33;;;;;10.43;72.13;102885.25;4957238;28;45512;-85
2022/01/28 01:57:46;;;;;;;;;85.33;78.33;;;;;10.39;72.18;102883.53;4940144;28;45885;-85
2022/01/28 02:00:13;;;;;;;;;83.00;71.67;;;;;10.43;71.92;102896.75;4958320;28;45447;-85
2022/01/28 02:02:38;;;;;;;;;79.33;65.00;;;;;10.38;72.12;102884.47;4957774;28;46373;-85
2022/01/28 02:05:04;;;;;;;;;70.00;55.25;;;;;10.43;72.15;102896.75;4955664;28;45467;-84
2022/01/28 02:07:30;;;;;;;;;49.25;40.00;;;;;10.44;72.12;102895.88;4955779;28;45390;-85
2022/01/28 02:09:56;;;;;;;;;49.00;38.00;;;;;10.47;72.24;102910.03;4957612;28;45578;-84
2022/01/28 02:12:22;;;;;;;;;46.50;38.00;;;;;10.45;71.96;102905.59;4957548;28;47643;-85
2022/01/28 02:14:47;;;;;;;;;39.75;34.25;;;;;10.44;71.88;102895.00;4956861;28;45508;-84
2022/01/28 02:17:12;;;;;;;;;39.50;35.25;;;;;10.43;72.05;102898.56;4956758;28;45595;-83
2022/01/28 02:19:39;;;;;;;;;41.75;34.75;;;;;10.39;71.94;102905.75;4956442;28;45540;-83
2022/01/28 02:22:05;;;;;;;;;42.75;35.25;;;;;10.39;71.80;102905.75;4957652;28;46476;-84
2022/01/28 02:24:38;;;;;;;;;47.75;36.00;;;;;10.43;72.01;102911.88;4994936;28;45513;-84
2022/01/28 02:27:04;;;;;;;;;45.00;37.50;;;;;10.41;71.94;102906.59;5033155;28;45373;-84
2022/01/28 02:29:32;;;;;;;;;41.75;36.25;;;;;10.35;71.76;102896.06;5035081;28;45328;-84
2022/01/28 02:32:00;;;;;;;;;40.50;34.50;;;;;10.38;71.58;102909.28;5029485;28;47146;-83
2022/01/28 02:34:26;;;;;;;;;38.75;33.75;;;;;10.34;71.56;102904.97;5035747;28;45391;-84
2022/01/28 02:36:52;;;;;;;;;40.75;32.50;;;;;10.30;71.72;102908.59;5034449;28;45271;-83
2022/01/28 02:39:17;;;;;;;;;37.00;32.00;;;;;10.31;71.92;102917.44;5034989;28;45585;-84
2022/01/28 02:41:47;;;;;;;;;32.50;30.50;;;;;10.31;71.63;102923.63;5027092;28;46038;-84
2022/01/28 02:44:24;;;;;;;;;35.50;28.25;;;;;10.30;71.49;102919.22;5034012;28;45376;-84
2022/01/28 02:47:02;;;;;;;;;28.25;27.50;;;;;10.27;71.51;102913.03;5036023;28;45382;-84
2022/01/28 02:49:34;;;;;;;;;30.75;28.75;;;;;10.22;71.71;102902.50;5035590;28;45633;-82
2022/01/28 02:52:01;;;;;;;;;30.25;28.25;;;;;10.27;71.51;102923.69;5032218;28;45403;-84
2022/01/28 02:54:27;;;;;;;;;35.50;26.75;;;;;10.17;71.53;102910.59;5028183;28;45417;-85
2022/01/28 02:56:58;;;;;;;;;26.25;24.25;;;;;10.24;71.58;102924.63;5034588;28;45467;-83
2022/01/28 02:59:23;;;;;;;;;33.25;31.25;;;;;10.24;71.43;102928.16;5028598;28;45447;-84
2022/01/28 03:01:48;;;;;;;;;29.75;26.75;;;;;10.20;71.41;102920.28;5035548;28;46094;-84
2022/01/28 03:04:40;;;;;;;;;27.25;25.00;;;;;10.22;71.82;102924.69;5034630;28;45334;-84
2022/01/28 03:06:59;;;;;;;;;33.00;26.00;;;;;10.23;71.59;102923.75;5031516;28;45522;-84
2022/01/28 03:09:35;;;;;;;;;30.00;27.25;;;;;10.21;71.49;102922.03;5034494;28;45431;-84
2022/01/28 03:12:13;;;;;;;;;27.50;27.50;;;;;10.20;71.48;102910.53;5033692;28;47645;-85
2022/01/28 03:14:58;;;;;;;;;26.75;21.50;;;;;10.13;71.54;102889.38;5031368;28;45444;-85
2022/01/28 03:22:44;;;;;;;;;24.75;23.00;;;;;10.09;71.38;102893.00;4973563;28;46105;-84
2022/01/28 03:25:09;;;;;;;;;23.75;21.50;;;;;10.07;71.67;102905.47;4972323;28;45426;-85
2022/01/28 03:27:49;;;;;;;;;26.00;24.50;;;;;10.03;71.75;102897.53;4972616;28;45521;-85
2022/01/28 03:30:15;;;;;;;;;27.25;23.25;;;;;10.02;71.62;102898.44;4972385;28;45516;-85
2022/01/28 03:32:41;;;;;;;;;24.00;18.50;;;;;10.05;72.04;102908.13;4972607;28;46006;-84
2022/01/28 03:35:06;;;;;;;;;27.00;20.75;;;;;10.10;71.69;102916.03;4971617;28;45426;-85
2022/01/28 03:37:31;;;;;;;;;25.50;22.50;;;;;10.10;71.76;102913.38;4973099;28;45427;-83
2022/01/28 03:39:57;;;;;;;;;25.00;23.75;;;;;10.09;71.87;102915.16;4972713;28;45339;-84
2022/01/28 03:42:22;;;;;;;;;24.75;23.00;;;;;10.09;71.89;102899.19;4972275;28;46572;-84
2022/01/28 03:44:47;;;;;;;;;30.50;25.75;;;;;10.10;71.76;102902.72;4972321;28;45417;-84
2022/01/28 03:47:13;;;;;;;;;25.00;22.00;;;;;10.05;71.75;102912.59;4972710;28;45367;-84
2022/01/28 03:49:38;;;;;;;;;21.50;20.50;;;;;10.08;71.66;102909.84;4968379;28;45523;-84
2022/01/28 03:52:04;;;;;;;;;27.50;23.25;;;;;10.01;71.47;102910.00;4972150;28;45652;-84
2022/01/28 03:54:29;;;;;;;;;24.50;20.50;;;;;9.98;71.50;102901.16;4972208;28;45488;-84
2022/01/28 03:56:56;;;;;;;;;29.75;26.00;;;;;10.06;71.60;102928.53;4987615;28;45455;-84
2022/01/28 03:59:21;;;;;;;;;24.25;20.75;;;;;9.99;71.60;102918.91;5014243;28;47645;-85
2022/01/28 04:01:48;;;;;;;;;29.00;26.00;;;;;10.02;71.66;102918.84;5013924;28;45855;-85
2022/01/28 04:12:40;;;;;;;;;26.25;20.50;;;;;9.98;71.57;102941.09;5009754;28;45699;-84
2022/01/28 04:17:32;;;;;;;;;28.50;22.75;;;;;10.02;71.60;102941.00;5012542;28;45537;-84
2022/01/28 04:19:58;;;;;;;;;32.25;22.75;;;;;9.96;71.71;102929.63;5010129;28;45358;-85
2022/01/28 04:22:24;;;;;;;;;31.00;25.50;;;;;9.96;71.94;102937.59;5008947;28;46019;-85
2022/01/28 04:24:50;;;;;;;;;28.50;25.00;;;;;9.99;71.65;102942.84;5013085;28;45562;-85
2022/01/28 04:27:15;;;;;;;;;28.75;25.00;;;;;9.96;71.42;102941.13;5010073;28;45376;-85
2022/01/28 04:29:43;;;;;;;;;28.50;23.00;;;;;10.00;71.49;102945.47;5014670;28;45396;-85
2022/01/28 04:32:09;;;;;;;;;23.00;20.50;;;;;9.99;71.62;102943.72;5014470;28;46528;-85
2022/01/28 04:34:35;;;;;;;;;28.25;23.75;;;;;9.98;71.47;102949.97;5009867;28;45331;-85
2022/01/28 04:42:19;;;;;;;;;23.25;23.25;;;;;9.95;71.82;102936.69;5014252;28;45299;-85
2022/01/28 04:45:00;;;;;;;;;29.25;24.00;;;;;9.99;71.80;102946.38;5011079;28;45375;-85
2022/01/28 05:00:27;;;;;;;;;28.75;24.00;;;;;10.00;71.53;102956.13;5021554;28;45507;-85
2022/01/28 05:27:09;;;;;;;;;53.00;42.00;;;;;9.87;71.44;102990.97;5018223;28;45329;-84
2022/01/28 05:29:25;;;;;;;;;58.50;46.50;;;;;9.87;71.38;102991.84;5014187;28;45623;-84
2022/01/28 05:31:51;;;;;;;;;54.50;42.50;;;;;9.87;71.14;102997.16;5012256;28;45400;-85
2022/01/28 05:34:17;;;;;;;;;52.50;44.00;;;;;9.86;71.06;102999.84;5018591;28;45635;-85
2022/01/28 05:36:43;;;;;;;;;59.00;43.25;;;;;9.78;70.99;102991.97;5024487;28;45504;-84
2022/01/28 05:39:08;;;;;;;;;50.25;42.75;;;;;9.79;70.95;103004.41;5031753;28;45562;-85
2022/01/28 05:41:34;;;;;;;;;52.50;42.50;;;;;9.72;70.95;103003.63;5027932;28;45357;-85
2022/01/28 05:44:02;;;;;;;;;49.50;39.25;;;;;9.68;70.93;103004.56;5034109;28;46176;-85
2022/01/28 05:46:28;;;;;;;;;44.75;38.50;;;;;9.63;71.36;103006.41;5032619;28;45507;-85
2022/01/28 05:48:56;;;;;;;;;52.25;42.50;;;;;9.66;71.14;103022.31;5032624;28;45463;-85
2022/01/28 05:51:21;;;;;;;;;49.50;39.50;;;;;9.64;71.29;103018.78;5032314;28;45459;-85
2022/01/28 05:53:46;;;;;;;;;51.50;42.50;;;;;9.65;71.32;103031.19;5033125;28;45463;-84
2022/01/28 05:56:12;;;;;;;;;53.25;43.00;;;;;9.59;71.32;103029.50;5017788;28;45468;-84
2022/01/28 05:58:37;;;;;;;;;55.75;43.00;;;;;9.62;71.41;103038.34;5022199;28;45496;-84
2022/01/28 06:01:02;;;;;;;;;56.00;44.25;;;;;9.63;71.20;103048.09;5029095;28;45456;-85
2022/01/28 06:03:28;;;;;;;;;53.00;41.50;;;;;9.58;71.26;103054.34;5025213;28;46797;-85
2022/01/28 06:05:53;;;;;;;;;55.75;45.50;;;;;9.59;71.31;103058.75;5032558;28;45419;-84
2022/01/28 06:08:18;;;;;;;;;53.75;45.50;;;;;9.51;71.25;103051.81;5036555;28;45463;-84
2022/01/28 06:10:44;;;;;;;;;57.25;46.50;;;;;9.58;71.36;103061.44;5032424;28;45519;-84
2022/01/28 06:13:11;;;;;;;;;55.25;44.25;;;;;9.53;71.46;103053.53;5031454;28;45435;-85
2022/01/28 06:15:41;;;;;;;;;55.50;45.00;;;;;9.55;71.26;103056.19;5027559;28;45416;-84
2022/01/28 06:18:11;;;;;;;;;53.75;42.50;;;;;9.53;71.34;103056.19;5022200;28;45610;-84
2022/01/28 06:20:37;;;;;;;;;52.75;42.25;;;;;9.43;71.38;103057.22;5034549;28;45313;-84
2022/01/28 06:23:03;;;;;;;;;58.75;45.50;;;;;9.34;71.41;103057.34;5033257;28;45500;-85
2022/01/28 06:25:28;;;;;;;;;55.75;44.50;;;;;9.19;71.61;103031.88;5031989;28;45890;-84
2022/01/28 06:27:54;;;;;;;;;56.25;44.25;;;;;9.28;71.92;103047.66;5013913;28;45440;-84
2022/01/28 06:30:20;;;;;;;;;55.50;45.25;;;;;9.34;72.35;103060.00;5030586;28;45559;-85
2022/01/28 06:32:47;;;;;;;;;49.25;41.00;;;;;9.36;71.70;103056.44;5035241;28;47075;-85
2022/01/28 06:35:13;;;;;;;;;54.50;42.75;;;;;9.36;71.62;103051.13;5035989;28;45392;-86
2022/01/28 06:37:40;;;;;;;;;47.50;40.50;;;;;9.42;71.65;103052.78;5032323;28;45389;-84
2022/01/28 06:40:12;;;;;;;;;56.50;44.75;;;;;9.43;71.47;103046.59;5030433;28;45356;-84
2022/01/28 06:42:37;;;;;;;;;50.75;41.75;;;;;9.45;71.28;103050.09;5028288;28;45527;-85
2022/01/28 06:45:04;;;;;;;;;54.25;44.00;;;;;9.48;71.03;103049.19;5025998;28;45988;-84
2022/01/28 06:47:31;;;;;;;;;49.75;41.75;;;;;9.46;71.28;103049.22;5026643;28;45520;-84
2022/01/28 06:49:57;;;;;;;;;51.50;41.50;;;;;9.42;71.17;103041.28;5032674;28;45482;-85
2022/01/28 06:52:22;;;;;;;;;51.25;41.25;;;;;9.53;70.96;103058.84;5030723;28;46282;-85
2022/01/28 06:54:48;;;;;;;;;41.25;36.50;;;;;9.46;70.78;103049.22;5027003;28;45461;-84
2022/01/28 06:57:13;;;;;;;;;49.25;37.50;;;;;9.41;70.42;103051.06;5021323;28;45570;-84
2022/01/28 06:59:38;;;;;;;;;50.50;39.50;;;;;9.47;70.56;103069.56;5033052;28;45405;-84
2022/01/28 07:02:04;;;;;;;;;44.75;36.00;;;;;9.47;70.61;103068.69;5032562;28;45485;-84
2022/01/28 07:04:29;;;;;;;;;43.75;38.25;;;;;9.44;70.82;103072.28;5032284;28;45509;-84
2022/01/28 07:06:55;;;;;;;;;48.75;38.75;;;;;9.37;70.68;103062.63;5027686;28;45364;-84
2022/01/28 07:09:20;;;;;;;;;47.50;37.75;;;;;9.45;70.40;103074.00;5032662;28;45465;-84
2022/01/28 07:11:45;;;;;;;;;50.50;40.00;;;;;9.47;70.68;103074.88;5028432;28;45425;-84
2022/01/28 07:14:11;;;;;;;;;52.75;40.50;;;;;9.41;70.52;103074.09;5023497;28;45415;-84
2022/01/28 07:16:36;;;;;;;;;46.00;36.50;;;;;9.45;70.57;103075.81;5018144;28;45608;-84
2022/01/28 07:19:03;;;;;;;;;50.75;42.50;;;;;9.45;70.53;103075.81;5026658;28;45407;-84
2022/01/28 07:21:31;;;;;;;;;58.50;44.25;;;;;9.40;70.65;103081.19;5023806;28;45424;-84
2022/01/28 07:23:56;;;;;;;;;54.50;43.75;;;;;9.42;70.66;103086.47;5033067;28;45444;-85
2022/01/28 07:26:21;;;;;;;;;40.25;35.25;;;;;9.39;70.55;103088.28;5022260;28;45813;-85
2022/01/28 07:28:48;;;;;;;;;56.00;43.75;;;;;9.41;70.71;103095.38;5015805;28;45568;-84
2022/01/28 07:31:17;;;;;;;;;47.25;39.75;;;;;9.38;70.82;103088.31;5022459;28;45619;-85
2022/01/28 07:33:49;;;;;;;;;48.00;40.00;;;;;9.29;70.86;103088.44;5010476;28;45572;-85
2022/01/28 07:36:15;;;;;;;;;46.00;38.25;;;;;9.37;71.05;103108.69;5018260;28;45453;-85
2022/01/28 07:38:41;;;;;;;;;56.75;43.25;;;;;9.38;70.98;103106.94;5023176;28;45521;-85
2022/01/28 07:41:09;;;;;;;;;59.75;47.00;;;;;9.37;70.81;103107.81;5025861;28;46142;-85
2022/01/28 07:43:39;;;;;;;;;53.50;41.75;;;;;9.38;71.11;103110.47;5017845;28;45475;-85
2022/01/28 07:46:05;;;;;;;;;53.75;40.25;;;;;9.37;70.93;103119.31;5027919;28;46438;-85
2022/01/28 07:48:31;;;;;;;;;51.25;40.50;;;;;9.38;70.96;103121.09;5024871;28;45447;-85
2022/01/28 07:50:57;;;;;;;;;63.25;49.00;;;;;9.39;71.05;103119.31;5027856;28;45423;-85
2022/01/28 07:53:22;;;;;;;;;64.25;50.25;;;;;9.42;70.98;103118.38;5029371;28;45965;-85
2022/01/28 07:55:47;;;;;;;;;63.00;48.00;;;;;9.36;71.04;103112.25;5027139;28;45522;-86
2022/01/28 07:58:13;;;;;;;;;61.75;46.75;;;;;9.43;71.15;103130.75;5026339;28;45515;-85
2022/01/28 08:00:38;;;;;;;;;56.75;46.25;;;;;9.45;70.86;103134.28;5025640;28;46368;-85
2022/01/28 08:03:04;;;;;;;;;59.00;45.75;;;;;9.46;70.98;103138.72;5006305;28;45591;-85
2022/01/28 08:05:29;;;;;;;;;51.50;42.50;;;;;9.41;70.84;103129.94;5025223;28;45696;-85
2022/01/28 08:07:55;;;;;;;;;51.00;42.50;;;;;9.42;70.85;103135.22;5024892;28;45301;-85
2022/01/28 08:10:20;;;;;;;;;50.25;40.25;;;;;9.49;70.85;103144.00;5027632;28;45431;-85
2022/01/28 08:12:48;;;;;;;;;49.75;40.00;;;;;9.36;70.81;103122.88;5024960;28;45604;-85
2022/01/28 08:15:14;;;;;;;;;48.00;39.00;;;;;9.48;70.95;103142.25;5025121;28;45554;-85
2022/01/28 08:17:40;;;;;;;;;50.50;42.00;;;;;9.50;70.77;103133.34;5023187;28;45569;-85
2022/01/28 08:20:06;;;;;;;;;46.75;40.25;;;;;9.54;70.66;103143.03;5019514;28;45577;-85
2022/01/28 08:22:31;;;;;;;;;51.25;39.50;;;;;9.54;70.71;103145.69;5019339;28;45541;-86
2022/01/28 08:24:57;;;;;;;;;47.00;39.50;;;;;9.51;70.71;103144.84;5022171;28;45575;-84
2022/01/28 08:27:22;;;;;;;;;45.75;38.25;;;;;9.46;70.62;103131.63;5027848;28;45393;-86
2022/01/28 08:29:47;;;;;;;;;46.50;38.25;;;;;9.54;70.60;103144.81;5018084;28;45466;-86
2022/01/28 08:32:13;;;;;;;;;51.25;41.00;;;;;9.57;70.59;103150.06;5021789;28;45535;-86
2022/01/28 08:34:38;;;;;;;;;49.50;38.25;;;;;9.49;70.43;103144.00;5019440;28;45934;-86
2022/01/28 08:37:04;;;;;;;;;51.25;41.00;;;;;9.53;70.73;103148.38;5021192;28;45485;-86
2022/01/28 08:39:34;;;;;;;;;49.25;39.50;;;;;9.54;70.58;103166.06;5021892;28;46285;-86
2022/01/28 08:41:59;;;;;;;;;52.75;41.25;;;;;9.55;70.72;103173.19;5020592;28;45346;-86
2022/01/28 08:44:26;;;;;;;;;43.00;36.00;;;;;9.49;70.70;103173.25;5025193;28;45641;-86
2022/01/28 08:46:51;;;;;;;;;45.75;37.25;;;;;9.57;70.74;103182.00;5026580;28;45449;-86
2022/01/28 08:49:17;;;;;;;;;49.25;38.50;;;;;9.58;71.05;103181.97;5008621;28;46314;-86
2022/01/28 08:51:42;;;;;;;;;49.00;39.00;;;;;9.60;70.75;103190.81;5028845;28;45547;-86
2022/01/28 08:54:07;;;;;;;;;49.00;37.00;;;;;9.61;70.97;103186.38;5027013;28;45477;-85
2022/01/28 08:56:33;;;;;;;;;48.75;38.75;;;;;9.64;70.57;103188.13;5031045;28;45558;-86
2022/01/28 08:58:58;;;;;;;;;47.75;37.75;;;;;9.62;70.71;103193.47;5025380;28;46496;-84
2022/01/28 09:01:23;;;;;;;;;50.50;39.50;;;;;9.68;70.76;103201.34;5027210;28;45464;-85
2022/01/28 09:03:50;;;;;;;;;52.25;40.25;;;;;9.69;70.52;103213.78;5024154;28;45749;-85
2022/01/28 09:06:15;;;;;;;;;51.50;40.75;;;;;9.65;70.61;103188.09;5025689;28;45452;-85
2022/01/28 09:08:43;;;;;;;;;45.00;38.00;;;;;9.65;70.45;103206.72;5025800;28;46364;-85
2022/01/28 09:11:31;;;;;;;;;52.50;39.00;;;;;9.71;70.80;103211.94;5022467;28;45544;-85
2022/01/28 09:13:55;;;;;;;;;51.75;41.25;;;;;9.66;70.85;103195.19;5026404;28;45811;-85
2022/01/28 09:16:21;;;;;;;;;50.25;40.25;;;;;9.72;70.91;103208.41;5027570;28;45558;-86
2022/01/28 09:18:47;;;;;;;;;51.00;41.00;;;;;9.74;70.65;103211.94;5026363;28;45551;-84
2022/01/28 09:21:13;;;;;;;;;51.00;40.75;;;;;9.76;70.65;103215.44;5024035;28;45562;-86
2022/01/28 09:23:39;;;;;;;;;47.00;40.75;;;;;9.74;70.92;103211.03;5022130;28;45651;-86
2022/01/28 09:26:04;;;;;;;;;55.00;43.50;;;;;9.77;70.71;103206.56;5001979;28;45346;-86
2022/01/28 09:28:29;;;;;;;;;51.75;42.00;;;;;9.77;70.72;103211.88;5033077;28;46290;-86
2022/01/28 09:30:57;;;;;;;;;50.00;39.00;;;;;9.65;70.79;103198.75;5032314;28;45372;-86
2022/01/28 09:33:23;;;;;;;;;51.75;43.00;;;;;9.80;70.71;103218.94;5032326;28;45401;-86
2022/01/28 09:35:48;;;;;;;;;48.75;41.00;;;;;9.77;70.87;103211.88;5033487;28;45483;-85
2022/01/28 09:38:14;;;;;;;;;47.00;39.00;;;;;9.80;70.79;103206.50;5034702;28;46218;-86
2022/01/28 09:40:39;;;;;;;;;54.75;42.00;;;;;9.85;70.79;103214.44;5018291;28;45604;-86
2022/01/28 09:43:07;;;;;;;;;44.50;38.50;;;;;9.89;70.81;103226.81;5034620;28;45624;-86
2022/01/28 09:45:33;;;;;;;;;52.00;41.50;;;;;9.80;70.99;103208.31;5031425;28;45420;-86
2022/01/28 09:47:59;;;;;;;;;53.25;44.50;;;;;9.95;70.89;103223.19;5027547;28;46047;-86
2022/01/28 09:50:27;;;;;;;;;47.50;39.25;;;;;9.96;70.65;103225.81;5034801;28;45518;-86
2022/01/28 09:52:54;;;;;;;;;53.50;42.25;;;;;9.94;70.74;103211.66;5033651;28;45300;-86
2022/01/28 09:55:21;;;;;;;;;53.75;45.50;;;;;9.92;70.93;103208.13;5036193;28;45487;-86
2022/01/28 09:57:51;;;;;;;;;54.75;43.50;;;;;10.00;70.96;103205.38;5033069;28;47332;-86
2022/01/28 10:00:19;;;;;;;;;58.00;45.25;;;;;10.01;71.01;103215.13;5032995;28;45695;-86
2022/01/28 10:02:50;;;;;;;;;58.00;45.50;;;;;10.04;70.90;103212.41;5033572;28;45487;-86
2022/01/28 10:05:22;;;;;;;;;49.75;40.50;;;;;10.01;70.85;103217.78;5015668;28;47291;-86
2022/01/28 10:08:06;;;;;;;;;57.25;43.50;;;;;10.01;71.23;103221.31;5029255;28;45336;-86
2022/01/28 10:10:52;;;;;;;;;53.75;42.50;;;;;10.03;71.17;103223.97;5033625;28;45539;-86
2022/01/28 10:13:23;;;;;;;;;50.75;39.75;;;;;10.09;70.79;103220.34;5034777;28;45411;-86
2022/01/28 10:16:13;;;;;;;;;55.75;44.00;;;;;10.03;70.90;103205.34;5027814;28;45714;-86
2022/01/28 10:18:43;;;;;;;;;48.00;41.25;;;;;10.12;70.65;103207.84;5028951;28;45537;-86
2022/01/28 10:21:27;;;;;;;;;48.25;40.50;;;;;10.19;70.55;103225.50;5016944;28;45893;-86
2022/01/28 10:23:55;;;;;;;;;52.00;41.50;;;;;10.18;70.29;103218.41;5032681;28;45686;-86
2022/01/28 10:26:30;;;;;;;;;49.75;42.50;;;;;10.19;70.23;103219.28;5035934;28;45586;-86
2022/01/28 10:28:56;;;;;;;;;50.25;42.00;;;;;10.21;70.32;103214.84;5030754;28;45384;-85
2022/01/28 10:31:22;;;;;;;;;54.75;44.00;;;;;10.18;69.96;103207.78;5030089;28;45503;-86
2022/01/28 10:33:47;;;;;;;;;53.75;42.50;;;;;10.27;69.96;103227.16;5033142;28;45534;-85
2022/01/28 10:36:24;;;;;;;;;46.75;38.25;;;;;10.30;69.74;103220.06;5026915;28;45449;-85
2022/01/28 10:38:56;;;;;;;;;45.25;39.00;;;;;10.29;68.98;103218.28;5032530;28;45490;-86
2022/01/28 10:41:23;;;;;;;;;43.25;34.75;;;;;10.29;68.62;103218.28;5020243;28;45376;-85
2022/01/28 10:43:57;;;;;;;;;40.25;34.75;;;;;10.24;67.88;103214.78;5035348;28;45519;-86
2022/01/28 10:46:25;;;;;;;;;31.75;30.75;;;;;10.35;68.14;103234.19;5031353;28;45541;-86
2022/01/28 10:49:03;;;;;;;;;32.00;29.75;;;;;10.37;67.31;103239.50;5031311;28;46192;-85
2022/01/28 10:51:43;;;;;;;;;30.25;27.25;;;;;10.38;67.15;103238.56;5030797;28;45326;-87
2022/01/28 10:54:11;;;;;;;;;39.50;30.00;;;;;10.43;67.30;103239.38;5031247;28;45888;-84
2022/01/28 10:56:57;;;;;;;;;32.25;30.00;;;;;10.44;66.67;103242.03;5033396;28;45472;-86
2022/01/28 10:59:26;;;;;;;;;26.75;25.75;;;;;10.51;66.58;103244.59;5019961;28;45579;-85
2022/01/28 11:01:52;;;;;;;;;34.00;32.00;;;;;10.47;66.40;103238.44;5032005;28;45427;-86
2022/01/28 11:04:19;;;;;;;;;33.25;28.25;;;;;10.57;66.17;103250.69;5030528;28;45514;-84
2022/01/28 11:06:45;;;;;;;;;25.75;25.75;;;;;10.58;66.33;103241.81;5031055;28;45392;-86
2022/01/28 11:09:13;;;;;;;;;31.50;27.75;;;;;10.63;66.01;103245.28;5030952;28;45353;-86
2022/01/28 11:11:39;;;;;;;;;40.50;34.25;;;;;10.71;65.76;103252.28;5033091;28;45435;-85
2022/01/28 11:14:06;;;;;;;;;30.00;24.50;;;;;10.64;65.41;103260.34;5033564;28;45501;-84
2022/01/28 11:16:31;;;;;;;;;30.00;27.75;;;;;10.66;65.69;103250.56;5031354;28;45547;-86
2022/01/28 11:18:58;;;;;;;;;31.25;28.75;;;;;10.60;65.16;103252.44;5033183;28;46318;-85
2022/01/28 11:21:49;;;;;;;;;23.00;20.50;;;;;10.57;65.28;103247.16;5022751;28;45371;-86
2022/01/28 11:24:47;;;;;;;;;24.00;22.75;;;;;10.55;65.59;103239.19;5030931;28;45716;-84
2022/01/28 11:27:28;;;;;;;;;26.00;24.00;;;;;10.44;64.87;103242.03;5013131;28;45274;-85
2022/01/28 11:30:13;;;;;;;;;29.75;25.00;;;;;10.40;65.39;103234.97;5031212;28;46015;-84
2022/01/28 11:32:53;;;;;;;;;31.50;26.75;;;;;10.39;65.65;103224.34;5017880;28;45449;-84
2022/01/28 11:35:20;;;;;;;;;26.00;22.00;;;;;10.40;65.65;103219.00;5032415;28;45468;-85
2022/01/28 11:37:46;;;;;;;;;31.50;28.25;;;;;10.55;65.56;103240.97;5030840;28;45385;-84
2022/01/28 11:40:14;;;;;;;;;26.50;24.50;;;;;10.52;65.31;103225.06;5034317;28;45518;-86
2022/01/28 11:42:39;;;;;;;;;29.00;26.50;;;;;10.58;64.92;103227.59;5029778;28;45549;-84
2022/01/28 11:45:07;;;;;;;;;28.00;26.25;;;;;10.58;64.84;103220.53;5029570;28;45456;-85
2022/01/28 11:47:35;;;;;;;;;27.00;25.00;;;;;10.59;64.81;103213.41;5033361;28;45503;-84
2022/01/28 11:50:13;;;;;;;;;29.75;29.75;;;;;10.61;64.67;103209.81;5028779;28;45549;-86
2022/01/28 11:52:55;;;;;;;;;28.75;25.50;;;;;10.62;65.23;103208.00;5033225;28;45492;-86
2022/01/28 11:55:21;;;;;;;;;27.75;25.75;;;;;10.64;64.83;103212.41;5030147;28;45400;-85
2022/01/28 11:57:55;;;;;;;;;29.00;25.75;;;;;10.64;64.60;103206.22;5029605;28;45465;-85
2022/01/28 12:00:28;;;;;;;;;30.50;25.75;;;;;10.63;64.21;103204.44;5027613;28;45329;-85
2022/01/28 12:02:54;;;;;;;;;25.75;19.50;;;;;10.59;64.44;103200.97;5021751;28;45412;-85
2022/01/28 12:05:28;;;;;;;;;28.50;24.50;;;;;10.58;64.06;103200.97;5033963;28;45467;-85
2022/01/28 12:07:55;;;;;;;;;27.50;21.00;;;;;10.57;64.16;103189.44;5031016;28;45393;-85
2022/01/28 12:10:23;;;;;;;;;23.25;19.25;;;;;10.56;64.14;103171.72;5034257;28;46394;-85
2022/01/28 12:12:58;;;;;;;;;24.50;22.25;;;;;10.54;63.95;103165.53;5028820;28;45459;-83
2022/01/28 12:15:25;;;;;;;;;22.00;19.00;;;;;10.60;63.69;103167.19;5029364;28;45286;-86
2022/01/28 12:18:03;;;;;;;;;24.25;22.00;;;;;10.61;63.88;103171.66;5030091;28;45419;-86
2022/01/28 12:20:37;;;;;;;;;26.00;22.25;;;;;10.64;63.75;103172.44;5020110;28;45433;-86
2022/01/28 12:23:08;;;;;;;;;21.75;21.00;;;;;10.73;63.27;103173.22;5031976;28;45380;-86
2022/01/28 12:25:36;;;;;;;;;22.25;20.25;;;;;10.75;63.15;103166.06;5032887;28;45396;-86
2022/01/28 12:28:27;;;;;;;;;20.25;17.25;;;;;10.70;62.80;103162.59;5030116;28;45385;-85
2022/01/28 12:31:04;;;;;;;;;25.25;23.75;;;;;10.58;62.70;103153.03;5029663;28;45391;-85
2022/01/28 12:33:46;;;;;;;;;23.50;21.50;;;;;10.46;63.23;103138.13;5029225;28;45565;-85
2022/01/28 12:36:18;;;;;;;;;27.00;20.50;;;;;10.47;63.39;103133.72;5027273;28;45658;-85
2022/01/28 12:38:58;;;;;;;;;23.25;19.50;;;;;10.52;63.50;103131.84;5031635;28;45479;-85
2022/01/28 12:41:24;;;;;;;;;29.75;24.00;;;;;10.59;63.55;103134.38;5018366;28;45514;-85
2022/01/28 12:43:50;;;;;;;;;20.00;16.50;;;;;10.58;63.06;103140.63;5030464;28;45484;-86
2022/01/28 12:46:16;;;;;;;;;23.00;19.00;;;;;10.54;63.21;103138.03;5029264;28;45391;-85